M I D A S
Marine Information and Data Acquisition System
Tripno 876 of the Zeeleeuw from 2005-04-04 09:42:55 to 2005-04-04 11:08:42
Back to CruiseResearch ActivitiesStationsMapUnderway DataData graphs

EquipmentUnitsComments
TimeDGPSUTC
LatitudeDGPSDM.mWGS84
LongitudeDGPSDM.mWGS84
SpeedMeteo Stationm/sRelative wind speed
DirectionMeteo StationdegRelative wind direction
TemperatureMeteo Stationdeg CelciusAir temperature
PressureMeteo StationPaAtmospheric pressure
HumidityMeteo Station%Relative humidity
Missing or incorrect values are displayed as -999
Metereological data collected by the RV Zeeleeuw from 2005-04-04 09:26:23 to 2005-04-04 11:18:58
                                                                                    Next 1000 lines
Time Latitude Longitude Speed Direction Temperature Pressure Humidity
2005-04-04 09:26:33 51°13.598 2°56.085 3.3 73 13.7 102040 70
2005-04-04 09:26:38 51°13.6 2°56.08 5 96 13.7 102040 70
2005-04-04 09:26:44 51°13.602 2°56.073 5.6 109 13.7 102040 70
2005-04-04 09:26:49 51°13.604 2°56.066 4.3 122 13.7 102040 69
2005-04-04 09:26:54 51°13.606 2°56.059 4.6 118 13.7 102040 69
2005-04-04 09:26:59 51°13.608 2°56.052 4.8 133 13.7 102040 70
2005-04-04 09:27:04 51°13.61 2°56.044 5 143 13.7 102040 70
2005-04-04 09:27:08 51°13.612 2°56.038 5.3 142 13.7 102040 69
2005-04-04 09:27:14 51°13.614 2°56.031 5 135 13.7 102040 69
2005-04-04 09:27:18 51°13.615 2°56.027 5.7 128 13.7 102040 70
2005-04-04 09:27:24 51°13.617 2°56.022 5.6 111 13.7 102040 70
2005-04-04 09:27:29 51°13.618 2°56.019 5.5 102 13.7 102040 69
2005-04-04 09:27:34 51°13.619 2°56.017 4.5 104 13.7 102040 69
2005-04-04 09:27:38 51°13.619 2°56.016 4.6 106 13.7 102040 69
2005-04-04 09:27:42 51°13.62 2°56.015 5.2 108 13.7 102040 69
2005-04-04 09:27:48 51°13.619 2°56.016 4.9 101 13.7 102040 69
2005-04-04 09:27:53 51°13.619 2°56.018 6.2 94 13.7 102040 69
2005-04-04 09:27:58 51°13.618 2°56.02 6.4 105 13.7 102040 69
2005-04-04 09:28:04 51°13.616 2°56.024 6.3 80 13.7 102040 69
2005-04-04 09:28:08 51°13.615 2°56.026 5.6 73 13.7 102040 69
2005-04-04 09:28:14 51°13.613 2°56.03 4.9 83 13.7 102040 69
2005-04-04 09:28:18 51°13.611 2°56.033 5 86 13.7 102040 69
2005-04-04 09:28:24 51°13.608 2°56.038 4.7 65 13.7 102040 69
2005-04-04 09:28:28 51°13.606 2°56.041 5.6 89 13.7 102040 69
2005-04-04 09:28:34 51°13.603 2°56.046 5.1 82 13.7 102040 69
2005-04-04 09:28:38 51°13.601 2°56.05 6.7 77 13.7 102040 69
2005-04-04 09:28:43 51°13.598 2°56.055 5.6 81 13.7 102040 69
2005-04-04 09:28:48 51°13.595 2°56.06 4.1 80 13.7 102040 69
2005-04-04 09:28:53 51°13.592 2°56.066 5 85 13.7 102040 69
2005-04-04 09:28:58 51°13.59 2°56.07 5.2 61 13.7 102040 70
2005-04-04 09:29:03 51°13.586 2°56.076 4.3 57 13.7 102040 70
2005-04-04 09:29:08 51°13.584 2°56.081 4 31 13.7 102040 70
2005-04-04 09:29:13 51°13.58 2°56.086 6.1 35 13.7 102040 70
2005-04-04 09:29:18 51°13.578 2°56.091 4.4 70 13.7 102040 70
2005-04-04 09:29:23 51°13.574 2°56.096 7.3 56 13.7 102040 70
2005-04-04 09:29:28 51°13.572 2°56.101 7 66 13.7 102040 70
2005-04-04 09:29:33 51°13.569 2°56.106 7.2 80 13.7 102040 70
2005-04-04 09:29:38 51°13.567 2°56.11 6.5 70 13.7 102040 70
2005-04-04 09:29:43 51°13.564 2°56.116 5.7 76 13.7 102040 70
2005-04-04 09:29:48 51°13.562 2°56.121 7.8 84 13.7 102040 69
2005-04-04 09:29:53 51°13.56 2°56.126 7.1 90 13.7 102040 69
2005-04-04 09:29:58 51°13.558 2°56.132 5.9 97 13.7 102030 69
2005-04-04 09:30:01 51°13.556 2°56.137 6.7 101 13.7 102030 69
2005-04-04 09:30:08 51°13.553 2°56.146 5.2 105 13.7 102040 69
2005-04-04 09:30:12 51°13.551 2°56.151 3.9 108 13.7 102040 69
2005-04-04 09:30:18 51°13.549 2°56.159 3.8 89 13.7 102040 69
2005-04-04 09:30:23 51°13.547 2°56.166 2.9 79 13.7 102040 69
2005-04-04 09:30:28 51°13.545 2°56.174 2.7 51 13.7 102040 69
2005-04-04 09:30:33 51°13.544 2°56.181 2.6 52 13.7 102040 69
2005-04-04 09:30:38 51°13.544 2°56.19 3.1 76 13.7 102040 69
2005-04-04 09:30:43 51°13.544 2°56.197 2.7 110 13.7 102040 69
2005-04-04 09:30:48 51°13.545 2°56.204 3 146 13.7 102040 70
2005-04-04 09:30:53 51°13.545 2°56.21 4.3 142 13.7 102040 70
2005-04-04 09:30:58 51°13.546 2°56.214 4.2 152 13.7 102040 70
2005-04-04 09:31:03 51°13.546 2°56.217 5.1 140 13.7 102040 70
2005-04-04 09:31:08 51°13.546 2°56.218 4.5 151 13.7 102040 70
2005-04-04 09:31:12 51°13.546 2°56.219 4.2 170 13.7 102040 70
2005-04-04 09:31:18 51°13.545 2°56.218 4.5 164 13.7 102040 70
2005-04-04 09:31:23 51°13.545 2°56.216 5.3 168 13.7 102040 70
2005-04-04 09:31:28 51°13.544 2°56.214 4.3 180 13.7 102040 69
2005-04-04 09:31:33 51°13.543 2°56.211 4.4 166 13.7 102040 69
2005-04-04 09:31:38 51°13.543 2°56.209 5.4 164 13.7 102050 69
2005-04-04 09:31:44 51°13.542 2°56.208 5.3 155 13.7 102050 69
2005-04-04 09:31:48 51°13.542 2°56.209 3.4 135 13.7 102050 69
2005-04-04 09:31:54 51°13.544 2°56.211 1.9 176 13.7 102050 69
2005-04-04 09:31:58 51°13.545 2°56.214 1.3 182 13.7 102050 70
2005-04-04 09:32:04 51°13.546 2°56.216 2.1 143 13.7 102050 70
2005-04-04 09:32:08 51°13.547 2°56.217 1.9 181 13.7 102050 70
2005-04-04 09:32:14 51°13.548 2°56.218 4 190 13.7 102050 70
2005-04-04 09:32:19 51°13.548 2°56.219 5.5 171 13.7 102050 70
2005-04-04 09:32:24 51°13.548 2°56.218 3.4 155 13.7 102050 70
2005-04-04 09:32:29 51°13.547 2°56.217 3.9 167 13.7 102050 70
2005-04-04 09:32:34 51°13.546 2°56.217 2.8 164 13.7 102050 70
2005-04-04 09:32:38 51°13.547 2°56.217 2.7 169 13.7 102050 70
2005-04-04 09:32:44 51°13.548 2°56.218 2.8 217 13.7 102050 70
2005-04-04 09:32:49 51°13.549 2°56.219 2.7 217 13.7 102040 70
2005-04-04 09:32:54 51°13.55 2°56.219 3.8 226 13.7 102040 70
2005-04-04 09:32:58 51°13.551 2°56.22 4 213 13.7 102050 70
2005-04-04 09:33:04 51°13.55 2°56.22 4.4 217 13.7 102050 70
2005-04-04 09:33:08 51°13.549 2°56.22 3.8 219 13.7 102050 70
2005-04-04 09:33:14 51°13.548 2°56.219 3.4 216 13.7 102050 70
2005-04-04 09:33:19 51°13.545 2°56.219 4.1 214 13.7 102040 70
2005-04-04 09:33:24 51°13.543 2°56.219 2.9 205 13.7 102040 70
2005-04-04 09:33:28 51°13.542 2°56.219 3.2 213 13.7 102050 69
2005-04-04 09:33:34 51°13.541 2°56.218 2.8 247 13.7 102050 69
2005-04-04 09:33:39 51°13.541 2°56.219 3.1 238 13.7 102050 69
2005-04-04 09:33:44 51°13.543 2°56.219 2 260 13.7 102050 69
2005-04-04 09:33:48 51°13.544 2°56.219 2.8 270 13.7 102040 69
2005-04-04 09:33:54 51°13.546 2°56.218 1.9 261 13.7 102040 69
2005-04-04 09:33:58 51°13.546 2°56.218 2 261 13.8 102050 70
2005-04-04 09:34:04 51°13.546 2°56.219 2.5 243 13.8 102050 70
2005-04-04 09:34:08 51°13.546 2°56.22 3.6 240 13.8 102040 70
2005-04-04 09:34:14 51°13.545 2°56.22 3.8 241 13.8 102040 70
2005-04-04 09:34:18 51°13.544 2°56.222 3 226 13.8 102040 70
2005-04-04 09:34:24 51°13.542 2°56.224 2.7 244 13.8 102040 70
2005-04-04 09:34:28 51°13.54 2°56.226 2.4 242 13.8 102040 69
2005-04-04 09:34:34 51°13.537 2°56.228 4.2 204 13.8 102040 69
2005-04-04 09:34:39 51°13.535 2°56.231 3.4 242 13.8 102040 70
2005-04-04 09:34:44 51°13.532 2°56.233 1.9 273 13.8 102040 70
2005-04-04 09:34:49 51°13.53 2°56.235 2 259 13.8 102040 69
2005-04-04 09:34:54 51°13.528 2°56.237 2.3 259 13.8 102040 69
2005-04-04 09:34:58 51°13.527 2°56.238 2.3 260 13.8 102050 69
2005-04-04 09:35:04 51°13.527 2°56.238 2.4 258 13.8 102050 69
2005-04-04 09:35:08 51°13.528 2°56.237 5.4 267 13.8 102040 69
2005-04-04 09:35:14 51°13.529 2°56.236 2.8 276 13.8 102040 69
2005-04-04 09:35:19 51°13.53 2°56.234 2.2 288 13.8 102040 70
2005-04-04 09:35:24 51°13.532 2°56.231 2.7 298 13.8 102040 70
2005-04-04 09:35:28 51°13.533 2°56.228 1.9 288 13.8 102040 70
2005-04-04 09:35:34 51°13.535 2°56.225 2.3 255 13.8 102040 70
2005-04-04 09:35:38 51°13.536 2°56.223 2.8 239 13.9 102040 70
2005-04-04 09:35:44 51°13.537 2°56.219 1.7 244 13.9 102040 70
2005-04-04 09:35:48 51°13.538 2°56.217 1.8 270 13.9 102040 70
2005-04-04 09:35:54 51°13.54 2°56.214 2.3 318 13.9 102040 70
2005-04-04 09:35:58 51°13.541 2°56.211 2.4 296 13.9 102040 70
2005-04-04 09:36:04 51°13.542 2°56.208 3.2 296 13.9 102040 70
2005-04-04 09:36:08 51°13.543 2°56.205 4.2 282 13.9 102040 69
2005-04-04 09:36:12 51°13.543 2°56.203 5.1 285 13.9 102040 69
2005-04-04 09:36:18 51°13.545 2°56.2 3.2 329 13.9 102040 70
2005-04-04 09:36:24 51°13.546 2°56.196 2.9 340 13.9 102040 70
2005-04-04 09:36:28 51°13.547 2°56.193 3.8 330 13.9 102050 69
2005-04-04 09:36:33 51°13.548 2°56.189 7.4 319 13.9 102050 69
2005-04-04 09:36:37 51°13.548 2°56.185 7.7 317 14 102040 69
2005-04-04 09:36:43 51°13.55 2°56.18 4.8 321 14 102040 69
2005-04-04 09:36:48 51°13.551 2°56.175 6.9 339 14 102040 69
2005-04-04 09:36:52 51°13.552 2°56.171 7 319 14 102040 69
2005-04-04 09:36:57 51°13.554 2°56.165 5.3 343 14 102040 69
2005-04-04 09:37:03 51°13.556 2°56.158 5.5 334 14 102040 69
2005-04-04 09:37:08 51°13.558 2°56.152 5.7 230 14 102030 69
2005-04-04 09:37:12 51°13.56 2°56.147 4.9 302 14 102030 69
2005-04-04 09:37:17 51°13.562 2°56.14 5 302 14 102030 69
2005-04-04 09:37:22 51°13.564 2°56.134 4.6 323 14 102030 69
2005-04-04 09:37:28 51°13.567 2°56.126 4.8 36 14 102030 69
2005-04-04 09:37:33 51°13.57 2°56.118 6.7 312 14 102030 69
2005-04-04 09:37:37 51°13.572 2°56.112 7 333 14.1 102030 69
2005-04-04 09:37:43 51°13.575 2°56.104 5.9 229 14.1 102030 69
2005-04-04 09:37:48 51°13.578 2°56.097 7.4 316 14.1 102040 69
2005-04-04 09:37:54 51°13.581 2°56.088 7.6 307 14.1 102040 69
2005-04-04 09:37:58 51°13.583 2°56.082 6.1 307 14.1 102030 69
2005-04-04 09:38:03 51°13.586 2°56.074 5 280 14.1 102030 69
2005-04-04 09:38:08 51°13.589 2°56.066 5.8 332 14 102040 69
2005-04-04 09:38:13 51°13.592 2°56.059 4.4 297 14 102040 69
2005-04-04 09:38:18 51°13.595 2°56.051 5.2 320 14.1 102040 68
2005-04-04 09:38:23 51°13.599 2°56.042 5.6 319 14.1 102040 68
2005-04-04 09:38:28 51°13.602 2°56.034 5.4 315 14.1 102050 69
2005-04-04 09:38:33 51°13.605 2°56.025 6.3 307 14.1 102050 69
2005-04-04 09:38:37 51°13.608 2°56.017 5.6 302 14 102030 69
2005-04-04 09:38:43 51°13.612 2°56.006 4.7 301 14 102030 69
2005-04-04 09:38:48 51°13.615 2°55.997 4.3 307 14 102040 69
2005-04-04 09:38:53 51°13.619 2°55.987 3.5 339 14 102040 69
2005-04-04 09:38:58 51°13.622 2°55.979 5.1 351 14 102040 69
2005-04-04 09:39:02 51°13.626 2°55.97 4.6 348 14 102040 69
2005-04-04 09:39:08 51°13.63 2°55.959 5.1 346 14 102040 69
2005-04-04 09:39:14 51°13.635 2°55.948 3.5 352 14 102040 69
2005-04-04 09:39:18 51°13.638 2°55.94 4.1 12 14 102040 69
2005-04-04 09:39:23 51°13.642 2°55.929 3.6 12 14 102040 69
2005-04-04 09:39:28 51°13.647 2°55.919 5.4 323 14 102040 69
2005-04-04 09:39:33 51°13.651 2°55.909 4.7 338 14 102040 69
2005-04-04 09:39:38 51°13.656 2°55.897 5.9 330 14 102040 69
2005-04-04 09:39:43 51°13.661 2°55.886 5.7 320 14 102040 69
2005-04-04 09:39:48 51°13.665 2°55.875 4.7 329 14 102030 69
2005-04-04 09:39:53 51°13.671 2°55.863 5 322 14 102030 69
2005-04-04 09:39:58 51°13.676 2°55.852 5.7 318 14.1 102030 69
2005-04-04 09:40:04 51°13.683 2°55.838 7.1 318 14.1 102030 69
2005-04-04 09:40:08 51°13.687 2°55.827 7.5 324 14 102030 69
2005-04-04 09:40:14 51°13.694 2°55.815 5.7 309 14 102030 69
2005-04-04 09:40:18 51°13.699 2°55.804 5.2 314 14 102030 69
2005-04-04 09:40:22 51°13.704 2°55.794 4.8 298 14 102030 69
2005-04-04 09:40:28 51°13.711 2°55.781 6.1 316 14 102030 69
2005-04-04 09:40:32 51°13.718 2°55.77 8.5 298 14 102030 69
2005-04-04 09:40:38 51°13.725 2°55.757 7.7 285 14 102020 69
2005-04-04 09:40:41 51°13.73 2°55.749 6.9 292 14 102020 69
2005-04-04 09:40:48 51°13.74 2°55.733 5.8 294 14 102030 69
2005-04-04 09:40:52 51°13.746 2°55.722 5.5 281 14 102030 69
2005-04-04 09:40:58 51°13.755 2°55.709 3.8 295 14.1 102030 69
2005-04-04 09:41:04 51°13.766 2°55.695 2.7 310 14.1 102030 69
2005-04-04 09:41:08 51°13.773 2°55.687 3.2 319 14 102030 69
2005-04-04 09:41:13 51°13.782 2°55.677 2.1 293 14 102030 69
2005-04-04 09:41:18 51°13.79 2°55.669 2.3 318 14 102030 68
2005-04-04 09:41:23 51°13.8 2°55.659 1.8 298 14 102030 68
2005-04-04 09:41:28 51°13.809 2°55.652 1.6 287 14 102040 69
2005-04-04 09:41:32 51°13.818 2°55.646 2.4 307 14 102040 69
2005-04-04 09:41:38 51°13.829 2°55.637 2.3 306 14 102040 69
2005-04-04 09:41:43 51°13.839 2°55.629 1.5 293 14 102040 69
2005-04-04 09:41:48 51°13.849 2°55.622 1.1 290 14 102030 69
2005-04-04 09:41:53 51°13.859 2°55.614 0.9 248 14 102030 69
2005-04-04 09:41:58 51°13.867 2°55.608 0.8 246 14 102030 69
2005-04-04 09:42:03 51°13.878 2°55.599 1.3 344 14 102030 69
2005-04-04 09:42:08 51°13.887 2°55.592 3.5 343 14 102040 69
2005-04-04 09:42:13 51°13.898 2°55.584 4 311 14 102040 69
2005-04-04 09:42:18 51°13.907 2°55.577 2.7 324 14 102040 69
2005-04-04 09:42:23 51°13.917 2°55.569 4.1 294 14 102040 69
2005-04-04 09:42:28 51°13.926 2°55.563 2.8 304 14.1 102030 69
2005-04-04 09:42:33 51°13.936 2°55.555 1.5 319 14.1 102030 69
2005-04-04 09:42:37 51°13.945 2°55.548 4 -999 14.1 102030 69
2005-04-04 09:42:42 51°13.955 2°55.541 3.2 341 14.1 102030 69
2005-04-04 09:42:48 51°13.966 2°55.533 3.3 318 14.1 102040 69
2005-04-04 09:42:52 51°13.975 2°55.526 4.5 303 14.1 102040 69
2005-04-04 09:42:58 51°13.986 2°55.518 6.1 303 14.1 102040 69
2005-04-04 09:43:04 51°13.998 2°55.51 3.1 313 14.1 102040 69
2005-04-04 09:43:08 51°14.007 2°55.503 3.3 326 14.1 102040 69
2005-04-04 09:43:12 51°14.015 2°55.497 3.3 315 14.1 102040 69
2005-04-04 09:43:18 51°14.027 2°55.489 3.8 304 14.1 102030 68
2005-04-04 09:43:23 51°14.039 2°55.481 4.7 278 14.1 102030 68
2005-04-04 09:43:28 51°14.049 2°55.473 3.9 296 14.1 102030 68
2005-04-04 09:43:32 51°14.058 2°55.467 3.1 311 14.1 102030 68
2005-04-04 09:43:38 51°14.07 2°55.457 2.5 302 14.1 102030 68
2005-04-04 09:43:43 51°14.082 2°55.448 3 289 14.1 102030 68
2005-04-04 09:43:48 51°14.092 2°55.44 3.3 301 14.1 102030 68
2005-04-04 09:43:54 51°14.107 2°55.429 2.3 332 14.1 102030 68
2005-04-04 09:43:58 51°14.117 2°55.421 2 296 14.1 102040 68
2005-04-04 09:44:03 51°14.13 2°55.411 3.1 306 14.1 102040 68
2005-04-04 09:44:08 51°14.142 2°55.4 2.7 321 14.1 102030 68
2005-04-04 09:44:13 51°14.155 2°55.39 5.1 1 14.1 102030 68
2005-04-04 09:44:17 51°14.165 2°55.382 5.4 358 14.1 102040 68
2005-04-04 09:44:23 51°14.18 2°55.368 5.7 326 14.1 102040 68
2005-04-04 09:44:28 51°14.191 2°55.358 7.1 341 14.1 102030 68
2005-04-04 09:44:34 51°14.206 2°55.343 7.5 323 14.1 102030 68
2005-04-04 09:44:38 51°14.215 2°55.332 8.2 317 14.1 102030 68
2005-04-04 09:44:43 51°14.227 2°55.317 6.2 316 14.1 102030 68
2005-04-04 09:44:48 51°14.238 2°55.301 7.2 320 14.1 102030 68
2005-04-04 09:44:53 51°14.249 2°55.285 7.9 326 14.1 102030 68
2005-04-04 09:44:58 51°14.259 2°55.268 8.7 327 14.1 102020 68
2005-04-04 09:45:02 51°14.266 2°55.257 9.5 326 14.1 102020 68
2005-04-04 09:45:08 51°14.278 2°55.236 10 318 14.1 102020 68
2005-04-04 09:45:13 51°14.289 2°55.216 10.5 322 14.1 102020 68
2005-04-04 09:45:18 51°14.299 2°55.2 9.3 322 14.1 102020 68
2005-04-04 09:45:23 51°14.309 2°55.181 9.4 317 14.1 102020 68
2005-04-04 09:45:28 51°14.319 2°55.161 8.3 319 14.1 102020 68
2005-04-04 09:45:32 51°14.328 2°55.144 9.2 43 14.1 102020 68
2005-04-04 09:45:38 51°14.34 2°55.12 8.6 316 14 102010 68
2005-04-04 09:45:43 51°14.349 2°55.1 9.8 316 14 102010 68
2005-04-04 09:45:48 51°14.358 2°55.081 10.4 316 14 102010 69
2005-04-04 09:45:53 51°14.369 2°55.061 10.3 232 14 102010 69
2005-04-04 09:45:58 51°14.379 2°55.04 10 312 14 102020 69
2005-04-04 09:46:03 51°14.391 2°55.016 9.8 227 14 102020 69
2005-04-04 09:46:08 51°14.401 2°54.994 8.8 43 13.9 102020 69
2005-04-04 09:46:13 51°14.411 2°54.972 8.8 329 13.9 102020 69
2005-04-04 09:46:18 51°14.42 2°54.952 9.2 329 13.9 102020 69
2005-04-04 09:46:23 51°14.43 2°54.929 9.6 331 13.9 102020 69
2005-04-04 09:46:28 51°14.441 2°54.905 10.2 329 13.9 102000 69
2005-04-04 09:46:33 51°14.451 2°54.884 9.7 325 13.9 102000 69
2005-04-04 09:46:38 51°14.461 2°54.862 9.4 328 13.8 102010 69
2005-04-04 09:46:42 51°14.469 2°54.844 9.9 328 13.8 102010 69
2005-04-04 09:46:48 51°14.481 2°54.817 10 325 13.8 102010 69
2005-04-04 09:46:53 51°14.491 2°54.792 10.3 327 13.8 102010 69
2005-04-04 09:46:58 51°14.5 2°54.772 11.1 330 13.7 102010 69
2005-04-04 09:47:03 51°14.511 2°54.747 10.9 323 13.7 102010 69
2005-04-04 09:47:08 51°14.52 2°54.727 10.5 324 13.7 102010 69
2005-04-04 09:47:13 51°14.53 2°54.703 10.5 323 13.7 102010 69
2005-04-04 09:47:18 51°14.539 2°54.683 10.6 323 13.6 102010 70
2005-04-04 09:47:23 51°14.549 2°54.658 10.8 321 13.6 102010 70
2005-04-04 09:47:28 51°14.559 2°54.636 10.9 324 13.6 102000 70
2005-04-04 09:47:33 51°14.568 2°54.614 10.8 320 13.6 102000 70
2005-04-04 09:47:38 51°14.578 2°54.591 10 321 13.6 102000 71
2005-04-04 09:47:42 51°14.584 2°54.576 10 320 13.6 102000 71
2005-04-04 09:47:48 51°14.596 2°54.549 10.5 320 13.5 102000 71
2005-04-04 09:47:53 51°14.605 2°54.527 10.3 322 13.5 102000 71
2005-04-04 09:47:58 51°14.616 2°54.502 10 325 13.5 102010 71
2005-04-04 09:48:03 51°14.624 2°54.48 10.2 326 13.5 102010 71
2005-04-04 09:48:08 51°14.633 2°54.457 9.4 329 13.5 102010 71
2005-04-04 09:48:12 51°14.64 2°54.438 10.6 327 13.5 102010 71
2005-04-04 09:48:18 51°14.649 2°54.413 10 330 13.5 102010 71
2005-04-04 09:48:22 51°14.656 2°54.395 9.5 327 13.5 102010 71
2005-04-04 09:48:28 51°14.666 2°54.365 9.3 327 13.4 102010 71
2005-04-04 09:48:33 51°14.674 2°54.341 10.1 328 13.4 102010 71
2005-04-04 09:48:38 51°14.682 2°54.32 9.6 332 13.4 102010 71
2005-04-04 09:48:43 51°14.691 2°54.295 9.6 331 13.4 102010 71
2005-04-04 09:48:48 51°14.699 2°54.271 9.5 332 13.3 102000 71
2005-04-04 09:48:52 51°14.705 2°54.252 9.4 330 13.3 102000 71
2005-04-04 09:48:58 51°14.713 2°54.226 9.9 330 13.3 102000 71
2005-04-04 09:49:02 51°14.72 2°54.204 9.4 330 13.3 102000 71
2005-04-04 09:49:08 51°14.727 2°54.175 10.3 332 13.3 102010 71
2005-04-04 09:49:13 51°14.734 2°54.15 10.3 331 13.3 102010 71
2005-04-04 09:49:18 51°14.739 2°54.128 10.3 332 13.2 102010 71
2005-04-04 09:49:23 51°14.746 2°54.101 11.3 331 13.2 102010 71
2005-04-04 09:49:28 51°14.752 2°54.078 11.2 331 13.2 102010 71
2005-04-04 09:49:33 51°14.758 2°54.051 11.2 332 13.2 102010 71
2005-04-04 09:49:38 51°14.763 2°54.029 10.5 333 13.1 102010 71
2005-04-04 09:49:44 51°14.771 2°53.999 10.9 330 13.1 102010 71
2005-04-04 09:49:48 51°14.776 2°53.977 10.1 331 13.1 102010 72
2005-04-04 09:49:52 51°14.781 2°53.957 10.2 331 13.1 102010 72
2005-04-04 09:49:58 51°14.787 2°53.93 11 330 13.1 102010 72
2005-04-04 09:50:03 51°14.793 2°53.902 10.3 331 13.1 102010 72
2005-04-04 09:50:08 51°14.797 2°53.876 11.4 331 13 102010 72
2005-04-04 09:50:12 51°14.799 2°53.855 11.1 336 13 102010 72
2005-04-04 09:50:18 51°14.802 2°53.827 11.2 334 13 102010 72
2005-04-04 09:50:23 51°14.804 2°53.798 11.3 335 13 102010 72
2005-04-04 09:50:28 51°14.806 2°53.771 12 335 13 102000 72
2005-04-04 09:50:33 51°14.807 2°53.745 11.3 336 13 102000 72
2005-04-04 09:50:38 51°14.808 2°53.721 11.4 335 12.9 102000 72
2005-04-04 09:50:43 51°14.809 2°53.691 12 333 12.9 102000 72
2005-04-04 09:50:48 51°14.81 2°53.664 11.7 335 12.9 102010 72
2005-04-04 09:50:53 51°14.811 2°53.637 12.2 334 12.9 102010 72
2005-04-04 09:50:58 51°14.812 2°53.613 11.7 334 12.9 102000 73
2005-04-04 09:51:03 51°14.813 2°53.583 12 336 12.9 102000 73
2005-04-04 09:51:08 51°14.814 2°53.559 12.1 334 12.9 102000 73
2005-04-04 09:51:13 51°14.815 2°53.53 12.1 336 12.9 102000 73
2005-04-04 09:51:17 51°14.816 2°53.508 11.5 337 12.8 102000 73
2005-04-04 09:51:23 51°14.817 2°53.476 11.7 337 12.8 102000 73
2005-04-04 09:51:28 51°14.818 2°53.449 12 337 12.8 102000 73
2005-04-04 09:51:33 51°14.819 2°53.424 12 335 12.8 102000 73
2005-04-04 09:51:37 51°14.82 2°53.401 12.2 337 12.7 102000 73
2005-04-04 09:51:43 51°14.819 2°53.368 12 339 12.7 102000 73
2005-04-04 09:51:48 51°14.819 2°53.342 11.1 344 12.7 102010 73
2005-04-04 09:51:53 51°14.818 2°53.315 11.3 343 12.7 102010 73
2005-04-04 09:51:58 51°14.817 2°53.291 11.8 343 12.7 102010 73
2005-04-04 09:52:04 51°14.815 2°53.258 11.5 343 12.7 102010 73
2005-04-04 09:52:08 51°14.814 2°53.237 11.7 343 12.6 102010 73
2005-04-04 09:52:13 51°14.813 2°53.207 11.4 342 12.6 102010 73
2005-04-04 09:52:18 51°14.811 2°53.183 11.3 342 12.6 102010 73
2005-04-04 09:52:24 51°14.81 2°53.151 11.2 344 12.6 102010 73
2005-04-04 09:52:28 51°14.809 2°53.129 11.3 342 12.5 102010 73
2005-04-04 09:52:33 51°14.807 2°53.1 11.7 345 12.5 102010 73
2005-04-04 09:52:38 51°14.806 2°53.075 11.1 341 12.5 102010 73
2005-04-04 09:52:42 51°14.805 2°53.054 11.7 343 12.5 102010 73
2005-04-04 09:52:48 51°14.803 2°53.019 11.6 344 12.5 102010 74
2005-04-04 09:52:53 51°14.802 2°52.992 11.5 344 12.5 102010 74
2005-04-04 09:52:58 51°14.801 2°52.968 10.4 344 12.4 102010 74
2005-04-04 09:53:04 51°14.799 2°52.935 10.9 346 12.4 102010 74
2005-04-04 09:53:08 51°14.798 2°52.911 11 345 12.4 102010 74
2005-04-04 09:53:13 51°14.797 2°52.884 11.3 343 12.4 102010 74
2005-04-04 09:53:18 51°14.796 2°52.86 11 342 12.3 102010 74
2005-04-04 09:53:23 51°14.795 2°52.833 11.8 343 12.3 102010 74
2005-04-04 09:53:28 51°14.794 2°52.803 11.5 345 12.3 102010 74
2005-04-04 09:53:34 51°14.793 2°52.773 10.8 346 12.3 102010 74
2005-04-04 09:53:38 51°14.792 2°52.752 11 344 12.3 102020 74
2005-04-04 09:53:44 51°14.791 2°52.719 11.2 343 12.3 102020 74
2005-04-04 09:53:48 51°14.79 2°52.694 11 342 12.2 102010 75
2005-04-04 09:53:53 51°14.789 2°52.667 11.3 344 12.2 102010 75
2005-04-04 09:53:58 51°14.788 2°52.643 11.2 344 12.2 102010 75
2005-04-04 09:54:03 51°14.786 2°52.613 11.5 345 12.2 102010 75
2005-04-04 09:54:08 51°14.785 2°52.586 11.2 344 12.2 102010 75
2005-04-04 09:54:12 51°14.784 2°52.564 11.9 343 12.2 102010 75
2005-04-04 09:54:18 51°14.782 2°52.534 11.4 342 12.1 102010 75
2005-04-04 09:54:24 51°14.781 2°52.501 12.1 343 12.1 102010 75
2005-04-04 09:54:28 51°14.78 2°52.48 11.9 341 12.1 102010 75
2005-04-04 09:54:34 51°14.779 2°52.447 12.2 342 12.1 102010 75
2005-04-04 09:54:38 51°14.778 2°52.425 11.6 342 12.1 102010 75
2005-04-04 09:54:43 51°14.778 2°52.395 11.4 341 12.1 102010 75
2005-04-04 09:54:48 51°14.777 2°52.37 11 341 12 102010 75
2005-04-04 09:54:53 51°14.777 2°52.346 10.2 340 12 102010 75
2005-04-04 09:54:58 51°14.777 2°52.326 9.8 339 12 102010 76
2005-04-04 09:55:04 51°14.778 2°52.302 9.6 332 12 102010 76
2005-04-04 09:55:08 51°14.779 2°52.285 9.3 332 12 102010 76
2005-04-04 09:55:12 51°14.781 2°52.271 8.8 330 12 102010 76
2005-04-04 09:55:17 51°14.783 2°52.254 8.6 329 12 102020 76
2005-04-04 09:55:23 51°14.785 2°52.235 8.3 330 12 102020 76
2005-04-04 09:55:28 51°14.786 2°52.22 8 331 12 102020 76
2005-04-04 09:55:33 51°14.787 2°52.206 7.4 330 12 102020 76
2005-04-04 09:55:38 51°14.788 2°52.194 7.4 330 11.9 102020 76
2005-04-04 09:55:43 51°14.788 2°52.18 8.3 332 11.9 102020 76
2005-04-04 09:55:48 51°14.788 2°52.168 8.4 334 11.9 102020 76
2005-04-04 09:55:53 51°14.787 2°52.156 8.7 338 11.9 102020 76
2005-04-04 09:55:58 51°14.786 2°52.144 8.5 337 11.9 102030 76
2005-04-04 09:56:04 51°14.785 2°52.132 8.4 345 11.9 102030 76
2005-04-04 09:56:08 51°14.783 2°52.122 8.6 342 11.8 102020 77
2005-04-04 09:56:13 51°14.781 2°52.113 8.3 346 11.8 102020 77
2005-04-04 09:56:18 51°14.779 2°52.104 8.5 345 11.8 102020 77
2005-04-04 09:56:23 51°14.776 2°52.094 8.1 349 11.8 102020 77
2005-04-04 09:56:28 51°14.773 2°52.087 7.5 348 11.8 102020 77
2005-04-04 09:56:33 51°14.77 2°52.078 8.1 348 11.8 102020 77
2005-04-04 09:56:38 51°14.768 2°52.071 7.8 346 11.8 102020 77
2005-04-04 09:56:44 51°14.765 2°52.063 7.8 347 11.8 102020 77
2005-04-04 09:56:48 51°14.763 2°52.056 7.5 348 11.8 102020 77
2005-04-04 09:56:53 51°14.761 2°52.05 7.9 349 11.8 102020 77
2005-04-04 09:56:58 51°14.759 2°52.044 8.1 348 11.8 102030 78
2005-04-04 09:57:04 51°14.756 2°52.036 8.2 347 11.8 102030 78
2005-04-04 09:57:08 51°14.755 2°52.03 8 348 11.8 102030 78
2005-04-04 09:57:13 51°14.753 2°52.024 7.9 350 11.8 102030 78
2005-04-04 09:57:17 51°14.751 2°52.02 7.8 347 11.8 102020 78
2005-04-04 09:57:23 51°14.75 2°52.012 7.5 346 11.8 102020 78
2005-04-04 09:57:28 51°14.748 2°52.007 7.8 346 11.8 102030 78
2005-04-04 09:57:32 51°14.747 2°52.002 7.3 345 11.8 102030 78
2005-04-04 09:57:38 51°14.745 2°51.996 7.8 344 11.8 102020 78
2005-04-04 09:57:43 51°14.744 2°51.99 6.9 343 11.8 102020 78
2005-04-04 09:57:48 51°14.743 2°51.985 6.9 343 11.8 102030 79
2005-04-04 09:57:53 51°14.742 2°51.98 6.9 345 11.8 102030 79
2005-04-04 09:57:58 51°14.74 2°51.974 6.7 345 11.8 102030 79
2005-04-04 09:58:02 51°14.739 2°51.97 6.9 343 11.8 102030 79
2005-04-04 09:58:08 51°14.738 2°51.963 7.2 344 11.8 102030 79
2005-04-04 09:58:13 51°14.737 2°51.957 7.2 342 11.8 102030 79
2005-04-04 09:58:18 51°14.736 2°51.952 7.6 343 11.8 102030 79
2005-04-04 09:58:23 51°14.735 2°51.946 7.7 342 11.8 102030 79
2005-04-04 09:58:28 51°14.734 2°51.941 7.5 341 11.7 102030 79
2005-04-04 09:58:32 51°14.733 2°51.936 7.6 341 11.7 102030 79
2005-04-04 09:58:38 51°14.732 2°51.93 7.5 344 11.7 102030 79
2005-04-04 09:58:44 51°14.73 2°51.923 7.9 341 11.7 102030 79
2005-04-04 09:58:48 51°14.73 2°51.917 7.9 343 11.7 102030 79
2005-04-04 09:58:52 51°14.729 2°51.913 7.9 342 11.7 102030 79
2005-04-04 09:58:58 51°14.728 2°51.906 7.8 338 11.8 102030 80
2005-04-04 09:59:03 51°14.727 2°51.899 8 338 11.8 102030 80
2005-04-04 09:59:08 51°14.726 2°51.893 7.7 337 11.8 102030 80
2005-04-04 09:59:13 51°14.725 2°51.887 7.8 337 11.8 102030 80
2005-04-04 09:59:18 51°14.725 2°51.881 7.9 337 11.8 102020 80
2005-04-04 09:59:22 51°14.724 2°51.876 7.7 336 11.8 102020 80
2005-04-04 09:59:28 51°14.723 2°51.868 7.2 336 11.8 102020 80
2005-04-04 09:59:34 51°14.723 2°51.861 8 333 11.8 102020 80
2005-04-04 09:59:38 51°14.723 2°51.855 8.1 333 11.8 102030 80
2005-04-04 09:59:44 51°14.722 2°51.848 7.7 335 11.8 102030 80
2005-04-04 09:59:48 51°14.722 2°51.842 7.2 337 11.8 102020 80
2005-04-04 09:59:53 51°14.722 2°51.835 7.3 336 11.8 102020 80
2005-04-04 09:59:58 51°14.721 2°51.829 6.7 337 11.8 102030 80
2005-04-04 10:00:02 51°14.721 2°51.823 7.2 338 11.8 102030 80
2005-04-04 10:00:08 51°14.721 2°51.815 7.3 334 11.8 102030 80
2005-04-04 10:00:13 51°14.721 2°51.809 6.9 336 11.8 102030 80
2005-04-04 10:00:18 51°14.721 2°51.802 6.7 336 11.8 102030 80
2005-04-04 10:00:22 51°14.721 2°51.797 7.4 333 11.8 102030 80
2005-04-04 10:00:28 51°14.721 2°51.789 7.4 334 11.8 102030 80
2005-04-04 10:00:33 51°14.721 2°51.782 7.3 333 11.8 102030 80
2005-04-04 10:00:38 51°14.721 2°51.776 7.3 335 11.8 102030 80
2005-04-04 10:00:42 51°14.72 2°51.77 7 335 11.8 102030 80
2005-04-04 10:00:48 51°14.72 2°51.762 7.1 337 11.8 102030 80
2005-04-04 10:00:53 51°14.72 2°51.756 7.1 335 11.8 102030 80
2005-04-04 10:00:58 51°14.72 2°51.749 7.5 335 11.8 102030 80
2005-04-04 10:01:03 51°14.719 2°51.743 7.5 337 11.8 102030 80
2005-04-04 10:01:08 51°14.719 2°51.736 7.6 337 11.7 102030 80
2005-04-04 10:01:13 51°14.718 2°51.73 7 339 11.7 102030 80
2005-04-04 10:01:18 51°14.718 2°51.724 7.7 338 11.7 102030 80
2005-04-04 10:01:23 51°14.717 2°51.717 7.7 340 11.7 102030 80
2005-04-04 10:01:28 51°14.717 2°51.711 7.1 341 11.7 102030 80
2005-04-04 10:01:33 51°14.716 2°51.705 7.3 341 11.7 102030 80
2005-04-04 10:01:38 51°14.715 2°51.7 7.3 343 11.7 102030 80
2005-04-04 10:01:42 51°14.714 2°51.695 6.9 345 11.7 102030 80
2005-04-04 10:01:48 51°14.713 2°51.687 6.9 347 11.7 102030 80
2005-04-04 10:01:53 51°14.712 2°51.681 7 346 11.7 102030 80
2005-04-04 10:01:58 51°14.711 2°51.676 7.4 346 11.7 102030 80
2005-04-04 10:02:04 51°14.71 2°51.669 7.6 346 11.7 102030 80
2005-04-04 10:02:08 51°14.709 2°51.663 7.5 345 11.7 102030 80
2005-04-04 10:02:13 51°14.708 2°51.657 8 346 11.7 102030 80
2005-04-04 10:02:18 51°14.706 2°51.652 7.8 346 11.7 102030 80
2005-04-04 10:02:23 51°14.705 2°51.646 8 346 11.7 102030 80
2005-04-04 10:02:28 51°14.704 2°51.641 8.1 346 11.6 102030 80
2005-04-04 10:02:33 51°14.702 2°51.634 8 346 11.6 102030 80
2005-04-04 10:02:38 51°14.701 2°51.628 7.9 346 11.6 102030 80
2005-04-04 10:02:43 51°14.7 2°51.623 7.5 345 11.6 102030 80
2005-04-04 10:02:48 51°14.698 2°51.616 7.6 347 11.6 102030 80
2005-04-04 10:02:52 51°14.697 2°51.612 7.8 348 11.6 102030 80
2005-04-04 10:02:58 51°14.695 2°51.605 7.9 348 11.6 102030 80
2005-04-04 10:03:03 51°14.694 2°51.599 7.5 347 11.6 102030 80
2005-04-04 10:03:08 51°14.692 2°51.593 7.5 345 11.6 102030 80
2005-04-04 10:03:13 51°14.691 2°51.587 7.3 344 11.6 102030 80
2005-04-04 10:03:18 51°14.689 2°51.581 7.5 346 11.6 102030 80
2005-04-04 10:03:22 51°14.688 2°51.577 7.9 345 11.6 102030 80
2005-04-04 10:03:28 51°14.686 2°51.569 7.7 346 11.6 102030 80
2005-04-04 10:03:33 51°14.685 2°51.563 7.5 346 11.6 102030 80
2005-04-04 10:03:38 51°14.684 2°51.558 7.8 343 11.6 102030 80
2005-04-04 10:03:43 51°14.682 2°51.551 7.8 346 11.6 102030 80
2005-04-04 10:03:48 51°14.681 2°51.545 8 347 11.6 102030 80
2005-04-04 10:03:52 51°14.679 2°51.54 7.5 344 11.6 102030 80
2005-04-04 10:03:58 51°14.678 2°51.534 7.8 346 11.6 102030 80
2005-04-04 10:04:03 51°14.676 2°51.527 8 347 11.6 102030 80
2005-04-04 10:04:08 51°14.675 2°51.522 8.1 345 11.6 102030 80
2005-04-04 10:04:13 51°14.673 2°51.515 8.2 346 11.6 102030 80
2005-04-04 10:04:18 51°14.672 2°51.51 7.6 346 11.6 102030 81
2005-04-04 10:04:22 51°14.67 2°51.505 7.7 346 11.6 102030 81
2005-04-04 10:04:28 51°14.669 2°51.497 8.3 344 11.6 102030 81
2005-04-04 10:04:33 51°14.667 2°51.492 7.8 347 11.6 102030 81
2005-04-04 10:04:38 51°14.666 2°51.486 8.5 344 11.6 102030 81
2005-04-04 10:04:43 51°14.664 2°51.479 8.9 343 11.6 102030 81
2005-04-04 10:04:48 51°14.663 2°51.474 8.6 340 11.6 102030 81
2005-04-04 10:04:53 51°14.661 2°51.468 8.3 340 11.6 102030 81
2005-04-04 10:04:58 51°14.66 2°51.462 8.1 345 11.6 102030 81
2005-04-04 10:05:03 51°14.659 2°51.456 8.2 345 11.6 102030 81
2005-04-04 10:05:08 51°14.658 2°51.45 8.3 343 11.6 102030 81
2005-04-04 10:05:13 51°14.656 2°51.443 8.6 341 11.6 102030 81
2005-04-04 10:05:18 51°14.655 2°51.438 8.1 343 11.6 102030 81
2005-04-04 10:05:22 51°14.655 2°51.433 8.9 343 11.6 102030 81
2005-04-04 10:05:28 51°14.653 2°51.425 8.7 343 11.6 102030 81
2005-04-04 10:05:34 51°14.652 2°51.418 8.4 345 11.6 102030 81
2005-04-04 10:05:38 51°14.651 2°51.413 7.7 345 11.6 102030 81
2005-04-04 10:05:43 51°14.65 2°51.406 8.2 341 11.6 102030 81
2005-04-04 10:05:48 51°14.649 2°51.4 8.2 340 11.6 102030 81
2005-04-04 10:05:52 51°14.648 2°51.395 8.2 339 11.6 102030 81
2005-04-04 10:05:57 51°14.647 2°51.388 8.1 340 11.6 102030 81
2005-04-04 10:06:03 51°14.646 2°51.381 8.9 336 11.6 102030 81
2005-04-04 10:06:08 51°14.645 2°51.375 8.3 337 11.6 102030 81
2005-04-04 10:06:12 51°14.645 2°51.369 8.1 338 11.6 102030 81
2005-04-04 10:06:18 51°14.643 2°51.363 8.2 340 11.6 102030 81
2005-04-04 10:06:24 51°14.642 2°51.355 8.8 339 11.6 102030 81
2005-04-04 10:06:28 51°14.641 2°51.35 8.4 339 11.6 102030 81
2005-04-04 10:06:32 51°14.64 2°51.345 9.2 341 11.6 102030 81
2005-04-04 10:06:39 51°14.639 2°51.336 9.1 341 11.6 102030 81
2005-04-04 10:06:43 51°14.638 2°51.331 9.1 340 11.6 102030 81
2005-04-04 10:06:48 51°14.637 2°51.324 8.6 342 11.6 102030 81
2005-04-04 10:06:54 51°14.636 2°51.318 8.4 340 11.6 102030 81
2005-04-04 10:06:58 51°14.635 2°51.312 7.8 340 11.6 102030 81
2005-04-04 10:07:03 51°14.634 2°51.306 8.9 341 11.6 102030 81
2005-04-04 10:07:08 51°14.633 2°51.3 8.3 341 11.6 102030 81
2005-04-04 10:07:13 51°14.631 2°51.294 8.3 344 11.6 102030 81
2005-04-04 10:07:18 51°14.63 2°51.288 7.8 346 11.6 102030 81
2005-04-04 10:07:24 51°14.628 2°51.281 8.1 343 11.6 102030 81
2005-04-04 10:07:28 51°14.627 2°51.276 8.6 344 11.6 102030 81
2005-04-04 10:07:33 51°14.626 2°51.269 8.1 344 11.6 102030 81
2005-04-04 10:07:38 51°14.625 2°51.263 8.2 344 11.6 102030 81
2005-04-04 10:07:42 51°14.623 2°51.259 8.1 344 11.6 102030 81
2005-04-04 10:07:48 51°14.622 2°51.251 8 343 11.6 102030 81
2005-04-04 10:07:52 51°14.621 2°51.246 7.7 346 11.6 102030 81
2005-04-04 10:07:57 51°14.619 2°51.24 7.9 345 11.6 102030 81
2005-04-04 10:08:03 51°14.618 2°51.233 7.8 345 11.6 102030 81
2005-04-04 10:08:08 51°14.616 2°51.227 8 344 11.6 102030 81
2005-04-04 10:08:13 51°14.615 2°51.221 7.9 345 11.6 102030 81
2005-04-04 10:08:18 51°14.614 2°51.214 8.1 344 11.6 102030 81
2005-04-04 10:08:24 51°14.612 2°51.208 7.8 344 11.6 102030 81
2005-04-04 10:08:28 51°14.611 2°51.202 7.6 343 11.6 102030 81
2005-04-04 10:08:34 51°14.61 2°51.195 7.9 342 11.6 102030 81
2005-04-04 10:08:38 51°14.609 2°51.191 7.6 342 11.6 102030 81
2005-04-04 10:08:42 51°14.608 2°51.186 7.7 343 11.6 102030 81
2005-04-04 10:08:48 51°14.606 2°51.178 8.2 343 11.5 102030 81
2005-04-04 10:08:53 51°14.605 2°51.172 7.9 344 11.5 102030 81
2005-04-04 10:08:57 51°14.604 2°51.166 7.3 341 11.5 102030 81
2005-04-04 10:09:03 51°14.602 2°51.159 7.5 346 11.5 102030 81
2005-04-04 10:09:08 51°14.601 2°51.153 7.4 344 11.5 102030 81
2005-04-04 10:09:12 51°14.6 2°51.148 7.7 345 11.5 102030 81
2005-04-04 10:09:18 51°14.598 2°51.14 7.7 344 11.5 102030 81
2005-04-04 10:09:22 51°14.598 2°51.136 8.1 345 11.5 102030 81
2005-04-04 10:09:28 51°14.596 2°51.128 7.8 343 11.5 102030 81
2005-04-04 10:09:33 51°14.595 2°51.122 8 342 11.5 102030 81
2005-04-04 10:09:38 51°14.594 2°51.115 7.6 343 11.5 102030 81
2005-04-04 10:09:43 51°14.592 2°51.109 8.2 344 11.5 102030 81
2005-04-04 10:09:48 51°14.591 2°51.102 8.2 343 11.5 102030 81
2005-04-04 10:09:53 51°14.59 2°51.096 7.8 341 11.5 102030 81
2005-04-04 10:09:58 51°14.589 2°51.09 7.9 341 11.5 102030 81
2005-04-04 10:10:03 51°14.588 2°51.083 7.7 344 11.5 102030 81
2005-04-04 10:10:08 51°14.587 2°51.077 7.6 341 11.5 102030 81
2005-04-04 10:10:12 51°14.586 2°51.072 7.5 340 11.5 102030 81
2005-04-04 10:10:18 51°14.585 2°51.065 7.7 341 11.5 102030 81
2005-04-04 10:10:23 51°14.583 2°51.058 8.4 341 11.5 102030 81
2005-04-04 10:10:28 51°14.582 2°51.052 7.8 339 11.4 102030 81
2005-04-04 10:10:33 51°14.581 2°51.045 7.5 339 11.4 102030 81
2005-04-04 10:10:38 51°14.58 2°51.039 8 341 11.4 102030 81
2005-04-04 10:10:44 51°14.579 2°51.032 7.6 341 11.4 102030 81
2005-04-04 10:10:48 51°14.578 2°51.026 8.4 342 11.4 102030 81
2005-04-04 10:10:54 51°14.577 2°51.019 7.9 343 11.4 102030 81
2005-04-04 10:10:58 51°14.576 2°51.014 8.1 342 11.4 102030 81
2005-04-04 10:11:04 51°14.575 2°51.006 7.8 339 11.4 102030 81
2005-04-04 10:11:08 51°14.574 2°51 8.1 340 11.4 102030 82
2005-04-04 10:11:13 51°14.573 2°50.994 7.9 342 11.4 102030 82
2005-04-04 10:11:18 51°14.572 2°50.988 8.5 339 11.5 102030 82
2005-04-04 10:11:23 51°14.571 2°50.981 8 340 11.5 102030 82
2005-04-04 10:11:28 51°14.57 2°50.975 7.8 338 11.4 102030 82
2005-04-04 10:11:33 51°14.569 2°50.969 8 341 11.4 102030 82
2005-04-04 10:11:38 51°14.568 2°50.963 7.8 341 11.4 102030 82
2005-04-04 10:11:43 51°14.567 2°50.955 7.6 341 11.4 102030 82
2005-04-04 10:11:48 51°14.567 2°50.949 7.9 342 11.4 102030 82
2005-04-04 10:11:53 51°14.566 2°50.943 7.5 342 11.4 102030 82
2005-04-04 10:11:58 51°14.565 2°50.937 7.3 341 11.4 102030 82
2005-04-04 10:12:02 51°14.564 2°50.931 7.4 340 11.4 102030 82
2005-04-04 10:12:08 51°14.563 2°50.923 7.5 340 11.4 102030 82
2005-04-04 10:12:13 51°14.562 2°50.917 8 339 11.4 102030 82
2005-04-04 10:12:18 51°14.562 2°50.911 7.8 340 11.4 102030 82
2005-04-04 10:12:23 51°14.561 2°50.904 8 340 11.4 102030 82
2005-04-04 10:12:28 51°14.56 2°50.897 8.2 339 11.4 102030 82
2005-04-04 10:12:33 51°14.559 2°50.891 7.9 340 11.4 102030 82
2005-04-04 10:12:38 51°14.559 2°50.885 7.7 340 11.4 102030 82
2005-04-04 10:12:43 51°14.558 2°50.878 7.7 338 11.4 102030 82
2005-04-04 10:12:48 51°14.558 2°50.871 7.8 338 11.4 102030 82
2005-04-04 10:12:53 51°14.557 2°50.865 8.2 338 11.4 102030 82
2005-04-04 10:12:58 51°14.557 2°50.858 7.9 337 11.4 102030 82
2005-04-04 10:13:04 51°14.556 2°50.85 7.9 338 11.4 102030 82
2005-04-04 10:13:08 51°14.556 2°50.844 8.4 336 11.4 102030 82
2005-04-04 10:13:13 51°14.555 2°50.838 8.4 337 11.4 102030 82
2005-04-04 10:13:18 51°14.555 2°50.832 7.9 337 11.4 102030 82
2005-04-04 10:13:22 51°14.554 2°50.827 8.3 336 11.4 102030 82
2005-04-04 10:13:28 51°14.553 2°50.819 8.4 338 11.4 102030 82
2005-04-04 10:13:33 51°14.553 2°50.812 7.9 337 11.4 102030 82
2005-04-04 10:13:38 51°14.552 2°50.806 8.6 338 11.4 102030 82
2005-04-04 10:13:44 51°14.551 2°50.798 8.5 339 11.4 102030 82
2005-04-04 10:13:48 51°14.55 2°50.793 8.1 337 11.4 102030 82
2005-04-04 10:13:53 51°14.549 2°50.786 8 339 11.4 102030 82
2005-04-04 10:13:58 51°14.548 2°50.781 8.2 343 11.4 102020 82
2005-04-04 10:14:04 51°14.547 2°50.773 7.8 341 11.4 102020 82
2005-04-04 10:14:08 51°14.546 2°50.768 8.1 340 11.4 102020 83
2005-04-04 10:14:14 51°14.545 2°50.761 7.9 344 11.4 102020 83
2005-04-04 10:14:18 51°14.544 2°50.756 7.9 344 11.4 102030 83
2005-04-04 10:14:23 51°14.543 2°50.749 7.8 343 11.4 102030 83
2005-04-04 10:14:28 51°14.542 2°50.743 7.6 343 11.4 102030 83
2005-04-04 10:14:33 51°14.541 2°50.737 7.9 346 11.4 102030 83
2005-04-04 10:14:38 51°14.54 2°50.731 7.9 347 11.5 102020 83
2005-04-04 10:14:43 51°14.538 2°50.725 7.8 348 11.5 102020 83
2005-04-04 10:14:48 51°14.537 2°50.719 7.8 346 11.5 102030 82
2005-04-04 10:14:53 51°14.535 2°50.713 7.7 348 11.5 102030 82
2005-04-04 10:14:58 51°14.534 2°50.707 7.6 348 11.5 102030 82
2005-04-04 10:15:04 51°14.532 2°50.701 8.1 349 11.5 102030 82
2005-04-04 10:15:08 51°14.53 2°50.696 8 345 11.5 102030 82
2005-04-04 10:15:12 51°14.529 2°50.691 7.7 351 11.5 102030 82
2005-04-04 10:15:18 51°14.527 2°50.685 7.6 351 11.5 102020 83
2005-04-04 10:15:24 51°14.525 2°50.679 7.6 353 11.5 102020 83
2005-04-04 10:15:28 51°14.523 2°50.673 8.1 351 11.5 102030 83
2005-04-04 10:15:33 51°14.521 2°50.668 7.5 353 11.5 102030 83
2005-04-04 10:15:38 51°14.52 2°50.663 8 351 11.5 102030 83
2005-04-04 10:15:42 51°14.518 2°50.658 7.8 352 11.5 102030 83
2005-04-04 10:15:48 51°14.516 2°50.651 8.4 351 11.5 102030 82
2005-04-04 10:15:54 51°14.514 2°50.645 8.1 350 11.5 102030 82
2005-04-04 10:15:58 51°14.513 2°50.64 8.5 350 11.5 102020 83
2005-04-04 10:16:03 51°14.511 2°50.634 7.6 350 11.5 102020 83
2005-04-04 10:16:08 51°14.509 2°50.628 7.9 347 11.5 102020 83
2005-04-04 10:16:14 51°14.507 2°50.622 7.9 345 11.5 102020 83
2005-04-04 10:16:18 51°14.506 2°50.617 8.2 347 11.5 102030 83
2005-04-04 10:16:22 51°14.504 2°50.612 8.4 345 11.5 102030 83
2005-04-04 10:16:28 51°14.502 2°50.605 8.1 345 11.5 102020 83
2005-04-04 10:16:33 51°14.501 2°50.598 8 345 11.5 102020 83
2005-04-04 10:16:38 51°14.499 2°50.593 7.9 345 11.5 102020 83
2005-04-04 10:16:43 51°14.497 2°50.586 8.2 345 11.5 102020 83
2005-04-04 10:16:48 51°14.496 2°50.581 7.9 346 11.5 102030 83
2005-04-04 10:16:53 51°14.494 2°50.574 7.8 342 11.5 102030 83
2005-04-04 10:16:58 51°14.493 2°50.569 8.1 344 11.5 102030 83
2005-04-04 10:17:04 51°14.491 2°50.561 8 343 11.5 102030 83
2005-04-04 10:17:08 51°14.49 2°50.556 8.1 344 11.5 102020 83
2005-04-04 10:17:13 51°14.489 2°50.55 7.6 343 11.5 102020 83
2005-04-04 10:17:18 51°14.487 2°50.544 7.7 343 11.5 102020 83
2005-04-04 10:17:23 51°14.486 2°50.538 7.8 344 11.5 102020 83
2005-04-04 10:17:28 51°14.485 2°50.531 7.6 343 11.5 102030 83
2005-04-04 10:17:33 51°14.483 2°50.525 8 344 11.5 102030 83
2005-04-04 10:17:38 51°14.482 2°50.519 8 344 11.5 102030 83
2005-04-04 10:17:44 51°14.481 2°50.512 8 343 11.5 102030 83
2005-04-04 10:17:48 51°14.479 2°50.507 7.6 345 11.5 102020 83
2005-04-04 10:17:53 51°14.478 2°50.501 8 345 11.5 102020 83
2005-04-04 10:17:58 51°14.477 2°50.495 8.2 344 11.5 102030 83
2005-04-04 10:18:02 51°14.475 2°50.49 7.5 345 11.5 102030 83
2005-04-04 10:18:08 51°14.474 2°50.482 8 345 11.5 102020 83
2005-04-04 10:18:13 51°14.472 2°50.476 8.3 345 11.5 102020 83
2005-04-04 10:18:18 51°14.471 2°50.47 7.9 344 11.5 102020 83
2005-04-04 10:18:21 51°14.47 2°50.466 8.2 345 11.5 102020 83
2005-04-04 10:18:28 51°14.469 2°50.457 8.4 344 11.5 102020 83
2005-04-04 10:18:32 51°14.467 2°50.453 8 343 11.5 102020 83
2005-04-04 10:18:39 51°14.466 2°50.444 8.1 345 11.5 102030 83
2005-04-04 10:18:44 51°14.464 2°50.438 8.8 344 11.5 102030 83
2005-04-04 10:18:48 51°14.463 2°50.433 8.4 346 11.6 102020 83
2005-04-04 10:18:53 51°14.462 2°50.427 8.5 345 11.6 102020 83
2005-04-04 10:18:58 51°14.46 2°50.421 8.7 349 11.5 102030 83
2005-04-04 10:19:02 51°14.46 2°50.417 9 346 11.5 102030 83
2005-04-04 10:19:08 51°14.457 2°50.409 7.9 344 11.5 102030 83
2005-04-04 10:19:13 51°14.456 2°50.403 8.5 347 11.5 102030 83
2005-04-04 10:19:18 51°14.454 2°50.397 9 344 11.5 102030 83
2005-04-04 10:19:22 51°14.453 2°50.393 8.5 345 11.5 102030 83
2005-04-04 10:19:28 51°14.451 2°50.386 8.7 344 11.5 102030 83
2005-04-04 10:19:33 51°14.449 2°50.381 8.4 344 11.5 102030 83
2005-04-04 10:19:38 51°14.448 2°50.375 8.3 346 11.5 102030 83
2005-04-04 10:19:42 51°14.446 2°50.37 8.1 345 11.5 102030 83
2005-04-04 10:19:48 51°14.444 2°50.363 7.9 346 11.5 102020 83
2005-04-04 10:19:53 51°14.442 2°50.358 7.7 343 11.5 102020 83
2005-04-04 10:19:58 51°14.441 2°50.353 7.6 344 11.6 102020 83
2005-04-04 10:20:01 51°14.439 2°50.349 8 347 11.6 102020 83
2005-04-04 10:20:08 51°14.437 2°50.341 8.2 347 11.5 102030 83
2005-04-04 10:20:13 51°14.435 2°50.336 8.5 345 11.5 102030 83
2005-04-04 10:20:18 51°14.433 2°50.33 7.6 345 11.5 102020 83
2005-04-04 10:20:23 51°14.432 2°50.325 7.7 345 11.5 102020 83
2005-04-04 10:20:28 51°14.43 2°50.319 8.5 345 11.5 102030 83
2005-04-04 10:20:33 51°14.428 2°50.314 8.2 345 11.5 102030 83
2005-04-04 10:20:38 51°14.426 2°50.309 8 344 11.5 102030 83
2005-04-04 10:20:43 51°14.424 2°50.303 8.2 347 11.5 102030 83
2005-04-04 10:20:48 51°14.422 2°50.297 7.8 344 11.5 102030 83
2005-04-04 10:20:54 51°14.42 2°50.291 8 343 11.5 102030 83
2005-04-04 10:20:58 51°14.419 2°50.287 7.9 343 11.5 102030 83
2005-04-04 10:21:02 51°14.417 2°50.282 7.7 344 11.5 102030 83
2005-04-04 10:21:08 51°14.415 2°50.275 8.2 343 11.5 102030 83
2005-04-04 10:21:13 51°14.413 2°50.27 8 345 11.5 102030 83
2005-04-04 10:21:18 51°14.411 2°50.265 7.8 348 11.5 102030 83
2005-04-04 10:21:23 51°14.409 2°50.259 8.3 347 11.5 102030 83
2005-04-04 10:21:28 51°14.408 2°50.253 7.9 345 11.5 102030 83
2005-04-04 10:21:33 51°14.406 2°50.249 7.9 347 11.5 102030 83
2005-04-04 10:21:38 51°14.405 2°50.244 8.1 344 11.5 102030 83
2005-04-04 10:21:42 51°14.403 2°50.239 7.7 345 11.5 102030 83
2005-04-04 10:21:48 51°14.401 2°50.232 8 343 11.5 102030 83
2005-04-04 10:21:53 51°14.399 2°50.226 7.4 344 11.5 102030 83
2005-04-04 10:21:58 51°14.397 2°50.22 7.5 346 11.5 102030 83
2005-04-04 10:22:02 51°14.396 2°50.216 7.6 345 11.5 102030 83
2005-04-04 10:22:08 51°14.393 2°50.208 7.5 345 11.4 102030 83
2005-04-04 10:22:13 51°14.391 2°50.203 8.5 343 11.4 102030 83
2005-04-04 10:22:18 51°14.39 2°50.197 8.2 342 11.4 102030 83
2005-04-04 10:22:24 51°14.388 2°50.19 8.4 341 11.4 102030 83
2005-04-04 10:22:28 51°14.386 2°50.186 7.9 341 11.4 102030 83
2005-04-04 10:22:33 51°14.385 2°50.179 8.6 342 11.4 102030 83
2005-04-04 10:22:38 51°14.383 2°50.174 7.9 341 11.4 102030 83
2005-04-04 10:22:44 51°14.381 2°50.167 7.9 341 11.4 102030 83
2005-04-04 10:22:48 51°14.38 2°50.162 7.9 340 11.4 102030 83
2005-04-04 10:22:54 51°14.378 2°50.155 7.5 339 11.4 102030 83
2005-04-04 10:22:58 51°14.377 2°50.15 7.6 338 11.4 102030 83
2005-04-04 10:23:03 51°14.375 2°50.143 8.4 340 11.4 102030 83
2005-04-04 10:23:08 51°14.373 2°50.137 8.3 339 11.4 102030 83
2005-04-04 10:23:13 51°14.372 2°50.131 8 339 11.4 102030 83
2005-04-04 10:23:18 51°14.371 2°50.126 7.7 339 11.4 102030 83
2005-04-04 10:23:23 51°14.369 2°50.119 8.1 341 11.4 102030 83
2005-04-04 10:23:28 51°14.367 2°50.113 7.6 337 11.4 102030 83
2005-04-04 10:23:34 51°14.366 2°50.106 7.9 339 11.4 102030 83
2005-04-04 10:23:38 51°14.365 2°50.101 7.8 339 11.4 102030 84
2005-04-04 10:23:42 51°14.364 2°50.096 8.5 338 11.4 102030 84
2005-04-04 10:23:48 51°14.361 2°50.088 8.5 337 11.4 102030 84
2005-04-04 10:23:53 51°14.36 2°50.082 8.2 337 11.4 102030 84
2005-04-04 10:23:58 51°14.359 2°50.076 8.6 338 11.3 102030 84
2005-04-04 10:24:02 51°14.358 2°50.071 8.1 333 11.3 102030 84
2005-04-04 10:24:08 51°14.356 2°50.063 7.6 335 11.3 102030 84
2005-04-04 10:24:13 51°14.355 2°50.057 8.5 334 11.3 102030 84
2005-04-04 10:24:18 51°14.354 2°50.051 8 335 11.4 102030 84
2005-04-04 10:24:23 51°14.353 2°50.044 8.2 333 11.4 102030 84
2005-04-04 10:24:28 51°14.352 2°50.038 8.1 336 11.3 102030 84
2005-04-04 10:24:32 51°14.351 2°50.033 7.8 337 11.3 102030 84
2005-04-04 10:24:37 51°14.349 2°50.027 8.6 337 11.4 102030 84
2005-04-04 10:24:43 51°14.348 2°50.019 7.9 338 11.4 102030 84
2005-04-04 10:24:48 51°14.347 2°50.013 7.9 336 11.4 102030 84
2005-04-04 10:24:53 51°14.345 2°50.007 8.9 337 11.4 102030 84
2005-04-04 10:24:58 51°14.344 2°50.001 8.5 341 11.4 102030 84
2005-04-04 10:25:02 51°14.343 2°49.996 8.2 338 11.4 102030 84
2005-04-04 10:25:08 51°14.341 2°49.988 8.2 339 11.4 102030 84
2005-04-04 10:25:13 51°14.34 2°49.982 8.1 338 11.4 102030 84
2005-04-04 10:25:18 51°14.338 2°49.977 8.8 338 11.3 102030 84
2005-04-04 10:25:23 51°14.337 2°49.971 8.1 341 11.3 102030 84
2005-04-04 10:25:28 51°14.335 2°49.965 7.9 342 11.3 102030 84
2005-04-04 10:25:33 51°14.333 2°49.958 8.5 342 11.3 102030 84
2005-04-04 10:25:38 51°14.331 2°49.953 7.7 343 11.4 102030 84
2005-04-04 10:25:44 51°14.329 2°49.945 7.9 344 11.4 102030 84
2005-04-04 10:25:48 51°14.327 2°49.94 8.2 342 11.4 102030 84
2005-04-04 10:25:54 51°14.325 2°49.933 8.6 344 11.4 102030 84
2005-04-04 10:25:58 51°14.323 2°49.929 8.7 344 11.4 102030 84
2005-04-04 10:26:03 51°14.321 2°49.923 8.1 345 11.4 102030 84
2005-04-04 10:26:08 51°14.32 2°49.917 8.2 344 11.4 102030 84
2005-04-04 10:26:13 51°14.318 2°49.911 8.1 344 11.4 102030 84
2005-04-04 10:26:18 51°14.316 2°49.906 8 348 11.4 102030 85
2005-04-04 10:26:23 51°14.314 2°49.899 7.9 347 11.4 102030 85
2005-04-04 10:26:28 51°14.312 2°49.893 8.2 346 11.4 102030 85
2005-04-04 10:26:33 51°14.31 2°49.887 7.8 347 11.4 102030 85
2005-04-04 10:26:38 51°14.308 2°49.882 8.1 347 11.4 102030 85
2005-04-04 10:26:43 51°14.306 2°49.876 8.2 347 11.4 102030 85
2005-04-04 10:26:48 51°14.304 2°49.871 7.8 346 11.4 102030 85
2005-04-04 10:26:53 51°14.302 2°49.864 8.1 345 11.4 102030 85
2005-04-04 10:26:58 51°14.3 2°49.859 8.2 346 11.3 102030 85
2005-04-04 10:27:04 51°14.298 2°49.852 7.9 346 11.3 102030 85
2005-04-04 10:27:08 51°14.296 2°49.847 8.1 344 11.4 102030 85
2005-04-04 10:27:13 51°14.295 2°49.841 8 343 11.4 102030 85
2005-04-04 10:27:18 51°14.293 2°49.835 7.5 344 11.4 102030 85
2005-04-04 10:27:23 51°14.291 2°49.829 7.7 343 11.4 102030 85
2005-04-04 10:27:28 51°14.289 2°49.823 7.8 343 11.4 102030 85
2005-04-04 10:27:34 51°14.287 2°49.815 7.6 343 11.4 102030 85
2005-04-04 10:27:38 51°14.286 2°49.81 7.7 343 11.4 102030 85
2005-04-04 10:27:43 51°14.283 2°49.803 7.7 342 11.4 102030 85
2005-04-04 10:27:48 51°14.282 2°49.797 7.6 341 11.4 102030 85
2005-04-04 10:27:53 51°14.28 2°49.791 7.6 342 11.4 102030 85
2005-04-04 10:27:58 51°14.279 2°49.785 8.4 342 11.3 102030 85
2005-04-04 10:28:01 51°14.278 2°49.781 8.4 341 11.3 102030 85
2005-04-04 10:28:08 51°14.276 2°49.772 7.4 341 11.4 102040 85
2005-04-04 10:28:12 51°14.274 2°49.767 8.3 341 11.4 102040 85
2005-04-04 10:28:18 51°14.272 2°49.758 7.8 340 11.3 102030 85
2005-04-04 10:28:22 51°14.271 2°49.754 8.5 338 11.3 102030 85
2005-04-04 10:28:28 51°14.269 2°49.745 7.6 338 11.3 102030 85
2005-04-04 10:28:33 51°14.268 2°49.739 8.1 339 11.3 102030 85
2005-04-04 10:28:38 51°14.266 2°49.733 7.6 339 11.3 102030 85
2005-04-04 10:28:42 51°14.265 2°49.728 8 336 11.3 102030 85
2005-04-04 10:28:48 51°14.264 2°49.721 8.1 337 11.3 102030 85
2005-04-04 10:28:53 51°14.262 2°49.714 8.4 341 11.3 102030 85
2005-04-04 10:28:58 51°14.261 2°49.708 7.7 339 11.3 102030 85
2005-04-04 10:29:03 51°14.26 2°49.702 7.9 335 11.3 102030 85
2005-04-04 10:29:08 51°14.258 2°49.695 7.5 339 11.3 102030 85
2005-04-04 10:29:13 51°14.257 2°49.688 7.5 337 11.3 102030 85
2005-04-04 10:29:18 51°14.256 2°49.681 7.7 337 11.3 102030 85
2005-04-04 10:29:24 51°14.254 2°49.674 7.5 336 11.3 102030 85
2005-04-04 10:29:28 51°14.253 2°49.668 8.2 336 11.3 102030 85
2005-04-04 10:29:33 51°14.252 2°49.662 7.8 333 11.3 102030 85
2005-04-04 10:29:38 51°14.251 2°49.655 7.9 337 11.3 102030 85
2005-04-04 10:29:44 51°14.249 2°49.648 7.8 340 11.3 102030 85
2005-04-04 10:29:48 51°14.248 2°49.642 8 340 11.3 102030 85
2005-04-04 10:29:53 51°14.246 2°49.635 7.5 342 11.3 102030 85
2005-04-04 10:29:58 51°14.245 2°49.63 7.5 341 11.3 102030 85
2005-04-04 10:30:04 51°14.243 2°49.622 8.1 338 11.3 102030 85
2005-04-04 10:30:08 51°14.242 2°49.617 7.5 340 11.3 102030 85
2005-04-04 10:30:12 51°14.24 2°49.611 7.4 342 11.3 102030 85
2005-04-04 10:30:18 51°14.238 2°49.604 7.5 342 11.3 102030 85
2005-04-04 10:30:23 51°14.237 2°49.597 7.6 340 11.3 102030 85
2005-04-04 10:30:28 51°14.235 2°49.591 7.7 340 11.3 102030 85
2005-04-04 10:30:33 51°14.234 2°49.584 7.9 338 11.3 102030 85
2005-04-04 10:30:38 51°14.232 2°49.578 7.8 340 11.2 102030 85
2005-04-04 10:30:44 51°14.23 2°49.571 7.6 340 11.2 102030 85
2005-04-04 10:30:48 51°14.23 2°49.564 7.7 340 11.3 102030 85
2005-04-04 10:30:53 51°14.229 2°49.557 7.5 339 11.3 102030 85
2005-04-04 10:30:58 51°14.229 2°49.55 7.4 339 11.3 102030 85
2005-04-04 10:31:04 51°14.228 2°49.542 7.4 340 11.3 102030 85
2005-04-04 10:31:08 51°14.227 2°49.536 7.2 338 11.3 102040 85
2005-04-04 10:31:13 51°14.225 2°49.53 8 337 11.3 102040 85
2005-04-04 10:31:18 51°14.224 2°49.524 7.1 338 11.3 102030 85
2005-04-04 10:31:24 51°14.222 2°49.516 7.8 338 11.3 102030 85
2005-04-04 10:31:28 51°14.22 2°49.51 7.6 334 11.2 102030 85
2005-04-04 10:31:33 51°14.219 2°49.503 7.5 333 11.2 102030 85
2005-04-04 10:31:38 51°14.217 2°49.497 7.4 336 11.2 102030 85
2005-04-04 10:31:44 51°14.216 2°49.488 7.2 334 11.2 102030 85
2005-04-04 10:31:48 51°14.215 2°49.483 7.6 332 11.2 102030 85
2005-04-04 10:31:52 51°14.214 2°49.476 7.4 329 11.2 102030 85
2005-04-04 10:31:58 51°14.212 2°49.469 7.5 329 11.2 102040 85
2005-04-04 10:32:04 51°14.211 2°49.46 7.8 329 11.2 102040 85
2005-04-04 10:32:08 51°14.211 2°49.453 7.5 328 11.2 102030 85
2005-04-04 10:32:13 51°14.21 2°49.446 7.9 327 11.2 102030 85
2005-04-04 10:32:18 51°14.21 2°49.439 7.8 325 11.2 102030 85
2005-04-04 10:32:22 51°14.21 2°49.433 7.5 323 11.2 102030 85
2005-04-04 10:32:28 51°14.21 2°49.423 7.6 323 11.2 102030 86
2005-04-04 10:32:33 51°14.21 2°49.416 8.2 322 11.2 102030 86
2005-04-04 10:32:38 51°14.21 2°49.408 7.5 323 11.2 102030 86
2005-04-04 10:32:44 51°14.21 2°49.399 7.9 322 11.2 102030 86
2005-04-04 10:32:48 51°14.211 2°49.392 7.5 322 11.2 102030 86
2005-04-04 10:32:52 51°14.211 2°49.386 8.2 319 11.2 102030 86
2005-04-04 10:32:58 51°14.211 2°49.377 7.8 320 11.2 102030 86
2005-04-04 10:33:04 51°14.212 2°49.367 8.4 318 11.2 102030 86
2005-04-04 10:33:08 51°14.212 2°49.36 7.8 319 11.2 102030 86
2005-04-04 10:33:12 51°14.213 2°49.353 7.6 316 11.2 102030 86
2005-04-04 10:33:18 51°14.214 2°49.343 8.1 317 11.2 102030 86
2005-04-04 10:33:22 51°14.214 2°49.338 8.3 43 11.2 102030 86
2005-04-04 10:33:28 51°14.215 2°49.327 7.9 316 11.2 102030 86
2005-04-04 10:33:32 51°14.216 2°49.321 8.7 227 11.2 102030 86
2005-04-04 10:33:38 51°14.217 2°49.312 7.7 226 11.2 102030 86
2005-04-04 10:33:44 51°14.219 2°49.302 7.7 311 11.2 102030 86
2005-04-04 10:33:48 51°14.22 2°49.296 7.1 310 11.2 102030 86
2005-04-04 10:33:53 51°14.222 2°49.287 7.9 312 11.2 102030 86
2005-04-04 10:33:58 51°14.224 2°49.279 7.6 309 11.2 102030 86
2005-04-04 10:34:03 51°14.226 2°49.271 7.8 307 11.2 102030 86
2005-04-04 10:34:08 51°14.228 2°49.263 7.2 306 11.2 102030 86
2005-04-04 10:34:13 51°14.231 2°49.255 7.1 305 11.2 102030 86
2005-04-04 10:34:18 51°14.233 2°49.248 7.3 302 11.2 102030 86
2005-04-04 10:34:23 51°14.236 2°49.24 7.8 305 11.2 102030 86
2005-04-04 10:34:28 51°14.239 2°49.232 6.6 300 11.2 102030 86
2005-04-04 10:34:32 51°14.241 2°49.226 7.2 298 11.2 102030 86
2005-04-04 10:34:37 51°14.244 2°49.219 6.5 297 11.2 102030 86
2005-04-04 10:34:43 51°14.248 2°49.211 7.1 294 11.2 102030 86
2005-04-04 10:34:48 51°14.251 2°49.204 6.4 292 11.2 102030 86
2005-04-04 10:34:54 51°14.254 2°49.197 6.7 293 11.2 102030 86
2005-04-04 10:34:58 51°14.257 2°49.193 6.9 292 11.2 102030 86
2005-04-04 10:35:04 51°14.261 2°49.186 6.4 288 11.2 102030 86
2005-04-04 10:35:08 51°14.263 2°49.182 6.1 289 11.2 102030 86
2005-04-04 10:35:13 51°14.266 2°49.176 6.6 286 11.2 102030 86
2005-04-04 10:35:18 51°14.269 2°49.171 6.8 286 11.1 102030 86
2005-04-04 10:35:24 51°14.273 2°49.166 6.3 285 11.1 102030 86
2005-04-04 10:35:28 51°14.275 2°49.161 6.6 285 11.2 102040 86
2005-04-04 10:35:33 51°14.278 2°49.157 6.2 282 11.2 102040 86
2005-04-04 10:35:38 51°14.281 2°49.152 6.1 282 11.1 102040 86
2005-04-04 10:35:43 51°14.284 2°49.149 6.3 283 11.1 102040 86
2005-04-04 10:35:48 51°14.287 2°49.145 6.2 282 11.2 102040 86
2005-04-04 10:35:53 51°14.29 2°49.141 6.6 281 11.2 102040 86
2005-04-04 10:35:58 51°14.292 2°49.137 6.5 278 11.2 102040 86
2005-04-04 10:36:04 51°14.295 2°49.133 6.7 276 11.2 102040 86
2005-04-04 10:36:08 51°14.298 2°49.13 6.9 279 11.2 102040 86
2005-04-04 10:36:12 51°14.3 2°49.127 6.6 280 11.2 102040 86
2005-04-04 10:36:18 51°14.303 2°49.123 6.2 279 11.1 102030 86
2005-04-04 10:36:23 51°14.306 2°49.119 6.8 277 11.1 102030 86
2005-04-04 10:36:29 51°14.309 2°49.116 6.8 279 11.2 102030 86
2005-04-04 10:36:33 51°14.311 2°49.113 6.4 279 11.2 102030 86
2005-04-04 10:36:38 51°14.313 2°49.11 6.7 277 11.1 102030 86
2005-04-04 10:36:44 51°14.316 2°49.106 6 279 11.1 102030 86
2005-04-04 10:36:48 51°14.318 2°49.104 5.9 279 11.1 102040 86
2005-04-04 10:36:53 51°14.321 2°49.101 6.3 281 11.1 102040 86
2005-04-04 10:36:58 51°14.323 2°49.098 6.3 279 11.1 102040 86
2005-04-04 10:37:04 51°14.326 2°49.095 5.9 277 11.1 102040 86
2005-04-04 10:37:08 51°14.327 2°49.093 5.7 279 11.1 102040 86
2005-04-04 10:37:14 51°14.33 2°49.09 6 282 11.1 102040 86
2005-04-04 10:37:18 51°14.332 2°49.088 5.8 280 11.1 102040 86
2005-04-04 10:37:23 51°14.334 2°49.086 5.9 281 11.1 102040 86
2005-04-04 10:37:28 51°14.337 2°49.083 5.9 280 11.1 102040 86
2005-04-04 10:37:33 51°14.339 2°49.081 6.1 282 11.1 102040 86
2005-04-04 10:37:38 51°14.341 2°49.079 5.8 280 11.1 102030 86
2005-04-04 10:37:42 51°14.343 2°49.077 6.2 281 11.1 102030 86
2005-04-04 10:37:48 51°14.345 2°49.074 5.5 282 11.1 102040 86
2005-04-04 10:37:53 51°14.347 2°49.072 5.4 282 11.1 102040 86
2005-04-04 10:37:58 51°14.349 2°49.07 5.6 280 11.1 102040 86
2005-04-04 10:38:02 51°14.351 2°49.068 6.1 279 11.1 102040 86
2005-04-04 10:38:08 51°14.353 2°49.066 5.6 280 11.1 102040 86
2005-04-04 10:38:12 51°14.355 2°49.064 6 278 11.1 102040 86
2005-04-04 10:38:18 51°14.357 2°49.062 6.1 280 11.1 102030 86
2005-04-04 10:38:22 51°14.359 2°49.06 5.9 277 11.1 102030 86
2005-04-04 10:38:28 51°14.361 2°49.058 6.3 278 11.1 102040 86
2005-04-04 10:38:32 51°14.363 2°49.057 6 277 11.1 102040 86
2005-04-04 10:38:38 51°14.365 2°49.055 5.8 279 11.1 102030 86
2005-04-04 10:38:43 51°14.367 2°49.053 6.2 279 11.1 102030 86
2005-04-04 10:38:48 51°14.368 2°49.052 6.1 281 11.1 102030 87
2005-04-04 10:38:54 51°14.37 2°49.05 5.7 279 11.1 102030 87
2005-04-04 10:38:58 51°14.372 2°49.048 5.9 278 11.1 102040 87
2005-04-04 10:39:03 51°14.374 2°49.047 5.6 279 11.1 102040 87
2005-04-04 10:39:08 51°14.376 2°49.045 5.4 279 11.1 102030 87
2005-04-04 10:39:13 51°14.377 2°49.044 6.1 279 11.1 102030 87
2005-04-04 10:39:18 51°14.379 2°49.042 5.7 280 11.1 102030 87
2005-04-04 10:39:23 51°14.382 2°49.04 5.6 281 11.1 102030 87
2005-04-04 10:39:28 51°14.384 2°49.036 6 281 11.1 102040 87
2005-04-04 10:39:34 51°14.388 2°49.031 6.2 277 11.1 102040 87
2005-04-04 10:39:38 51°14.391 2°49.026 6.2 278 11.1 102040 87
2005-04-04 10:39:42 51°14.395 2°49.022 6 275 11.1 102040 87
2005-04-04 10:39:48 51°14.403 2°49.014 6.2 275 11.1 102030 87
2005-04-04 10:39:53 51°14.41 2°49.008 5.8 267 11.1 102030 87
2005-04-04 10:39:58 51°14.417 2°49.004 4.9 266 11.1 102030 87
2005-04-04 10:40:04 51°14.427 2°48.999 3.2 261 11.1 102030 87
2005-04-04 10:40:08 51°14.435 2°48.997 3.4 261 11.1 102030 87
2005-04-04 10:40:12 51°14.442 2°48.996 2.4 252 11.1 102030 87
2005-04-04 10:40:18 51°14.453 2°48.996 2.6 247 11.1 102030 87
2005-04-04 10:40:23 51°14.464 2°48.997 1.9 242 11.1 102030 87
2005-04-04 10:40:28 51°14.474 2°49.001 2 235 11.1 102040 87
2005-04-04 10:40:33 51°14.484 2°49.006 1 225 11.1 102040 87
2005-04-04 10:40:38 51°14.493 2°49.013 0.9 213 11.1 102040 87
2005-04-04 10:40:43 51°14.504 2°49.022 0.5 190 11.1 102040 87
2005-04-04 10:40:48 51°14.513 2°49.033 0.5 175 11.1 102030 87
2005-04-04 10:40:53 51°14.521 2°49.045 2.7 125 11.1 102030 87
2005-04-04 10:40:57 51°14.528 2°49.055 2 99 11.1 102040 87
2005-04-04 10:41:03 51°14.539 2°49.071 1.1 83 11.1 102040 87
2005-04-04 10:41:08 51°14.548 2°49.084 1.9 87 11 102040 87
2005-04-04 10:41:13 51°14.559 2°49.1 1.7 69 11 102040 87
2005-04-04 10:41:18 51°14.569 2°49.115 1.7 69 11 102040 87
2005-04-04 10:41:23 51°14.581 2°49.132 1.5 63 11 102040 87
2005-04-04 10:41:29 51°14.594 2°49.15 1.7 91 11 102040 87
2005-04-04 10:41:32 51°14.603 2°49.161 1.9 42 11 102040 87
2005-04-04 10:41:38 51°14.616 2°49.179 1.8 60 11 102040 87
2005-04-04 10:41:44 51°14.631 2°49.2 1.6 74 11 102040 87
2005-04-04 10:41:48 51°14.642 2°49.216 1.6 77 11 102040 87
2005-04-04 10:41:54 51°14.655 2°49.235 1.8 75 11 102040 87
2005-04-04 10:41:58 51°14.665 2°49.251 2.1 76 11 102040 87
2005-04-04 10:42:03 51°14.678 2°49.271 2.2 71 11 102040 87
2005-04-04 10:42:08 51°14.689 2°49.291 2.1 66 11 102040 87
2005-04-04 10:42:13 51°14.7 2°49.308 2.2 80 11 102040 87
2005-04-04 10:42:18 51°14.712 2°49.328 2.2 72 11 102040 87
2005-04-04 10:42:22 51°14.721 2°49.344 2.2 74 11 102040 87
2005-04-04 10:42:28 51°14.737 2°49.371 3 83 11 102040 87
2005-04-04 10:42:33 51°14.75 2°49.392 2.6 73 11 102040 87
2005-04-04 10:42:38 51°14.761 2°49.412 2.9 72 11 102030 87
2005-04-04 10:42:43 51°14.775 2°49.435 2.6 67 11 102030 87
2005-04-04 10:42:48 51°14.787 2°49.455 2.6 68 11 102040 87
2005-04-04 10:42:53 51°14.802 2°49.479 3.2 66 11 102040 87
2005-04-04 10:42:58 51°14.813 2°49.499 2.6 70 11 102040 87
2005-04-04 10:43:03 51°14.827 2°49.523 3 71 11 102040 87
2005-04-04 10:43:08 51°14.84 2°49.547 3.3 68 11 102040 87
2005-04-04 10:43:13 51°14.852 2°49.57 3.3 70 11 102040 87
2005-04-04 10:43:18 51°14.865 2°49.594 3.5 67 11 102030 87
2005-04-04 10:43:23 51°14.876 2°49.618 3.8 69 11 102030 87
2005-04-04 10:43:28 51°14.888 2°49.642 3.5 64 11 102040 87
2005-04-04 10:43:33 51°14.9 2°49.666 3.3 65 11 102040 87
2005-04-04 10:43:38 51°14.91 2°49.689 3.7 66 11 102030 87
2005-04-04 10:43:42 51°14.92 2°49.708 3.6 61 11 102030 87
2005-04-04 10:43:48 51°14.935 2°49.739 3.5 59 11 102030 87
2005-04-04 10:43:54 51°14.948 2°49.766 3.6 60 11 102030 87
2005-04-04 10:43:58 51°14.959 2°49.789 3.5 68 11 102040 87
2005-04-04 10:44:04 51°14.971 2°49.815 2.8 69 11 102040 87
2005-04-04 10:44:08 51°14.982 2°49.838 2.8 72 10.9 102040 87
2005-04-04 10:44:13 51°14.992 2°49.86 3.3 70 10.9 102040 87
2005-04-04 10:44:18 51°15.003 2°49.885 3.2 71 10.9 102040 87
2005-04-04 10:44:22 51°15.012 2°49.905 4.1 72 10.9 102040 87
2005-04-04 10:44:28 51°15.025 2°49.939 3.9 64 10.9 102040 88
2005-04-04 10:44:33 51°15.034 2°49.966 4 72 10.9 102040 88
2005-04-04 10:44:38 51°15.042 2°49.991 4.2 67 10.9 102040 88
2005-04-04 10:44:43 51°15.052 2°50.021 4.2 70 10.9 102040 88
2005-04-04 10:44:48 51°15.06 2°50.049 4.3 67 10.9 102040 88
2005-04-04 10:44:54 51°15.069 2°50.08 4.5 67 10.9 102040 88
2005-04-04 10:44:58 51°15.075 2°50.103 4.7 65 10.9 102040 88
2005-04-04 10:45:04 51°15.084 2°50.136 4.7 68 10.9 102040 88
2005-04-04 10:45:08 51°15.09 2°50.159 4.5 74 10.9 102030 88
2005-04-04 10:45:12 51°15.097 2°50.184 4.7 76 10.9 102030 88
2005-04-04 10:45:18 51°15.106 2°50.219 4.8 76 10.9 102030 88
2005-04-04 10:45:23 51°15.114 2°50.246 4.8 75 10.9 102030 88
2005-04-04 10:45:28 51°15.122 2°50.274 4.6 76 10.8 102030 88
2005-04-04 10:45:33 51°15.129 2°50.3 4.5 76 10.8 102030 88
2005-04-04 10:45:38 51°15.137 2°50.328 4.4 74 10.8 102030 88
2005-04-04 10:45:43 51°15.146 2°50.359 4.4 71 10.8 102030 88
2005-04-04 10:45:48 51°15.155 2°50.387 4.6 70 10.8 102030 88
2005-04-04 10:45:53 51°15.163 2°50.415 4.2 71 10.8 102030 88
2005-04-04 10:45:58 51°15.171 2°50.444 4.5 68 10.8 102030 89
2005-04-04 10:46:02 51°15.177 2°50.463 4.4 65 10.8 102030 89
2005-04-04 10:46:08 51°15.187 2°50.497 4.7 65 10.8 102030 89
2005-04-04 10:46:13 51°15.195 2°50.529 4.8 62 10.8 102030 89
2005-04-04 10:46:18 51°15.202 2°50.554 4.8 62 10.8 102030 89
2005-04-04 10:46:23 51°15.211 2°50.586 4.8 61 10.8 102030 89
2005-04-04 10:46:28 51°15.219 2°50.614 4.9 62 10.8 102030 89
2005-04-04 10:46:33 51°15.227 2°50.64 4.6 64 10.8 102030 89
2005-04-04 10:46:38 51°15.235 2°50.668 4.6 64 10.8 102040 88
2005-04-04 10:46:44 51°15.245 2°50.702 4.8 58 10.8 102040 88
2005-04-04 10:46:48 51°15.252 2°50.727 4.7 63 10.8 102030 88
2005-04-04 10:46:53 51°15.261 2°50.755 4.5 75 10.8 102030 88
2005-04-04 10:46:58 51°15.268 2°50.781 4.8 73 10.8 102030 88
2005-04-04 10:47:02 51°15.275 2°50.807 4.4 76 10.8 102030 88
2005-04-04 10:47:08 51°15.285 2°50.84 4.8 78 10.8 102030 88
2005-04-04 10:47:13 51°15.293 2°50.869 5 79 10.8 102030 88
2005-04-04 10:47:18 51°15.3 2°50.894 5.1 81 10.8 102030 88
2005-04-04 10:47:22 51°15.306 2°50.917 4.9 80 10.8 102030 88
2005-04-04 10:47:28 51°15.317 2°50.954 5 80 10.8 102030 89
2005-04-04 10:47:34 51°15.326 2°50.985 5 80 10.8 102030 89
2005-04-04 10:47:38 51°15.333 2°51.011 5.3 84 10.8 102030 89
2005-04-04 10:47:43 51°15.34 2°51.036 5.1 82 10.8 102030 89
2005-04-04 10:47:48 51°15.349 2°51.067 4.7 77 10.8 102030 89
2005-04-04 10:47:52 51°15.356 2°51.089 4.3 80 10.8 102030 89
2005-04-04 10:47:58 51°15.365 2°51.12 4.5 76 10.8 102030 89
2005-04-04 10:48:04 51°15.375 2°51.154 4.5 77 10.8 102030 89
2005-04-04 10:48:08 51°15.382 2°51.18 4 74 10.8 102030 89
2005-04-04 10:48:13 51°15.39 2°51.208 4.8 69 10.8 102030 89
2005-04-04 10:48:18 51°15.398 2°51.237 4.6 70 10.8 102030 89
2005-04-04 10:48:22 51°15.403 2°51.256 4.6 77 10.8 102030 89
2005-04-04 10:48:28 51°15.414 2°51.293 4.4 71 10.8 102030 89
2005-04-04 10:48:34 51°15.423 2°51.323 4.2 74 10.8 102030 89
2005-04-04 10:48:38 51°15.43 2°51.346 4.2 73 10.8 102040 89
2005-04-04 10:48:43 51°15.439 2°51.377 4.5 76 10.8 102040 89
2005-04-04 10:48:48 51°15.446 2°51.402 4.3 79 10.8 102030 89
2005-04-04 10:48:52 51°15.453 2°51.428 4.4 71 10.8 102030 89
2005-04-04 10:48:58 51°15.462 2°51.459 4.6 72 10.8 102030 89
2005-04-04 10:49:03 51°15.471 2°51.49 4.9 76 10.8 102030 89
2005-04-04 10:49:08 51°15.478 2°51.515 5.1 81 10.8 102030 89
2005-04-04 10:49:13 51°15.487 2°51.546 4.9 77 10.8 102030 89
2005-04-04 10:49:18 51°15.495 2°51.572 5.3 82 10.9 102030 89
2005-04-04 10:49:22 51°15.501 2°51.594 5.3 91 10.9 102030 89
2005-04-04 10:49:28 51°15.512 2°51.63 5.4 88 10.8 102040 89
2005-04-04 10:49:32 51°15.518 2°51.653 5.3 83 10.8 102040 89
2005-04-04 10:49:38 51°15.528 2°51.687 5.3 83 10.8 102040 89
2005-04-04 10:49:44 51°15.536 2°51.718 5 80 10.8 102040 89